createdAt,value
2022-11-07T00:00:22.870Z,83.94
2022-11-07T00:01:22.867Z,83.89
2022-11-07T00:02:22.906Z,83.88
2022-11-07T00:03:22.856Z,83.94
2022-11-07T00:04:22.821Z,84.08
2022-11-07T00:05:22.808Z,84.20
2022-11-07T00:06:22.912Z,84.42
2022-11-07T00:07:22.782Z,84.59
2022-11-07T00:08:22.798Z,84.74
2022-11-07T00:09:22.764Z,84.73
2022-11-07T00:10:22.746Z,84.72
2022-11-07T00:11:22.728Z,84.71
2022-11-07T00:12:22.731Z,84.76
2022-11-07T00:13:22.713Z,84.86
2022-11-07T00:14:22.720Z,84.93
2022-11-07T00:15:22.695Z,84.93
2022-11-07T00:16:22.675Z,84.93
2022-11-07T00:17:22.670Z,84.89
2022-11-07T00:18:22.656Z,84.81
2022-11-07T00:19:22.656Z,84.68
2022-11-07T00:20:22.633Z,84.64
2022-11-07T00:21:22.645Z,84.57
2022-11-07T00:22:22.619Z,84.42
2022-11-07T00:23:22.599Z,84.30
2022-11-07T00:24:22.613Z,84.19
2022-11-07T00:25:22.590Z,84.02
2022-11-07T00:26:22.570Z,83.93
2022-11-07T00:27:22.613Z,83.90
2022-11-07T00:28:22.541Z,83.78
2022-11-07T00:29:22.561Z,83.59
2022-11-07T00:30:22.521Z,83.59
2022-11-07T00:31:22.541Z,83.43
2022-11-07T00:32:22.501Z,83.27
2022-11-07T00:33:22.490Z,83.15
2022-11-07T00:34:22.503Z,83.11
2022-11-07T00:35:22.471Z,83.11
2022-11-07T00:36:22.468Z,83.16
2022-11-07T00:37:22.437Z,83.25
2022-11-07T00:38:22.434Z,83.25
2022-11-07T00:39:22.422Z,83.23
2022-11-07T00:40:22.420Z,83.16
2022-11-07T00:41:22.392Z,83.27
2022-11-07T00:42:22.378Z,83.36
2022-11-07T00:43:22.369Z,83.37
2022-11-07T00:44:22.371Z,83.33
2022-11-07T00:45:22.354Z,83.38
2022-11-07T00:46:22.344Z,83.40
2022-11-07T00:47:22.356Z,83.57
2022-11-07T00:48:22.315Z,83.62
2022-11-07T00:49:22.317Z,83.55
2022-11-07T00:50:22.312Z,83.55
2022-11-07T00:51:22.302Z,83.50
2022-11-07T00:52:22.275Z,83.51
2022-11-07T00:53:22.253Z,83.50
2022-11-07T00:54:22.274Z,83.47
2022-11-07T00:55:22.245Z,83.50
2022-11-07T00:56:22.235Z,83.56
2022-11-07T00:57:22.205Z,83.71
2022-11-07T00:58:22.207Z,83.70
2022-11-07T00:59:22.194Z,83.69
2022-11-07T01:00:22.178Z,83.77
2022-11-07T01:01:22.296Z,83.91
2022-11-07T01:02:22.290Z,83.95
2022-11-07T01:03:22.146Z,83.97
2022-11-07T01:04:22.145Z,83.98
2022-11-07T01:05:22.146Z,84.01
2022-11-07T01:06:22.134Z,84.06
2022-11-07T01:07:22.125Z,84.11
2022-11-07T01:08:22.090Z,84.13
2022-11-07T01:09:22.084Z,84.18
2022-11-07T01:10:22.112Z,84.24
2022-11-07T01:11:22.088Z,84.24
2022-11-07T01:12:22.092Z,84.24
2022-11-07T01:13:22.030Z,84.23
2022-11-07T01:14:22.029Z,84.23
2022-11-07T01:15:22.018Z,84.31
2022-11-07T01:16:22.027Z,84.36
2022-11-07T01:17:22.000Z,84.41
2022-11-07T01:18:21.979Z,84.53
2022-11-07T01:19:21.979Z,84.61
2022-11-07T01:20:21.977Z,84.65
2022-11-07T01:21:21.956Z,84.64
2022-11-07T01:22:21.934Z,84.64
2022-11-07T01:23:21.935Z,84.59
2022-11-07T01:24:21.906Z,84.60
2022-11-07T01:25:21.899Z,84.60
2022-11-07T01:26:21.905Z,84.60
2022-11-07T01:27:21.884Z,84.61
2022-11-07T01:28:21.856Z,84.62
2022-11-07T01:29:21.845Z,84.68
2022-11-07T01:30:21.832Z,84.70
2022-11-07T01:31:21.852Z,84.71
2022-11-07T01:32:21.818Z,84.75
2022-11-07T01:33:21.836Z,84.76
2022-11-07T01:34:21.801Z,84.76
2022-11-07T01:35:21.777Z,84.75
2022-11-07T01:36:21.790Z,84.74
2022-11-07T01:37:21.755Z,84.74
2022-11-07T01:38:21.747Z,84.73
2022-11-07T01:39:21.736Z,84.74
2022-11-07T01:40:21.721Z,84.75
2022-11-07T01:41:21.745Z,84.75
2022-11-07T01:42:21.702Z,84.75
2022-11-07T01:43:21.712Z,84.75
2022-11-07T01:44:21.680Z,84.74
2022-11-07T01:45:21.672Z,84.74
2022-11-07T01:46:21.677Z,84.75
2022-11-07T01:47:21.645Z,84.79
2022-11-07T01:48:21.629Z,84.80
2022-11-07T01:49:21.649Z,84.86
2022-11-07T01:50:24.655Z,84.85
2022-11-07T01:51:21.620Z,84.84
2022-11-07T01:52:21.587Z,84.81
2022-11-07T01:53:21.577Z,84.91
2022-11-07T01:54:21.566Z,84.94
2022-11-07T01:55:21.566Z,84.95
2022-11-07T01:56:21.570Z,85.07
2022-11-07T01:57:21.525Z,85.14
2022-11-07T01:58:21.514Z,85.23
2022-11-07T01:59:21.528Z,85.22
2022-11-07T02:00:21.498Z,85.24
2022-11-07T02:01:21.524Z,85.23
2022-11-07T02:02:21.568Z,85.22
2022-11-07T02:03:21.474Z,85.23
2022-11-07T02:04:21.465Z,85.23
2022-11-07T02:05:21.438Z,85.27
2022-11-07T02:06:21.440Z,85.34
2022-11-07T02:07:21.416Z,85.34
2022-11-07T02:08:21.451Z,85.32
2022-11-07T02:09:21.414Z,85.31
2022-11-07T02:10:21.375Z,85.39
2022-11-07T02:11:21.395Z,85.38
2022-11-07T02:12:21.392Z,85.36
2022-11-07T02:13:21.352Z,85.34
2022-11-07T02:14:21.328Z,85.32
2022-11-07T02:15:21.324Z,85.27
2022-11-07T02:16:21.332Z,85.36
2022-11-07T02:17:21.310Z,85.37
2022-11-07T02:18:21.288Z,85.47
2022-11-07T02:19:21.282Z,85.54
2022-11-07T02:20:21.277Z,85.69
2022-11-07T02:21:21.277Z,85.65
2022-11-07T02:22:21.280Z,85.63
2022-11-07T02:23:21.240Z,85.69
2022-11-07T02:24:21.234Z,85.69
2022-11-07T02:25:21.234Z,85.75
2022-11-07T02:26:21.208Z,85.74
2022-11-07T02:27:21.191Z,85.45
2022-11-07T02:28:21.179Z,85.28
2022-11-07T02:29:21.215Z,85.24
2022-11-07T02:30:21.201Z,85.16
2022-11-07T02:31:21.179Z,85.17
2022-11-07T02:32:21.163Z,85.23
2022-11-07T02:33:21.120Z,85.28
2022-11-07T02:34:21.122Z,85.37
2022-11-07T02:35:21.117Z,85.53
2022-11-07T02:36:21.123Z,85.52
2022-11-07T02:37:21.073Z,85.55
2022-11-07T02:38:21.073Z,85.58
2022-11-07T02:39:21.078Z,85.63
2022-11-07T02:40:21.045Z,85.83
2022-11-07T02:41:21.055Z,86.09
2022-11-07T02:42:21.029Z,86.25
2022-11-07T02:43:21.009Z,86.50
2022-11-07T02:44:20.989Z,86.36
2022-11-07T02:45:20.991Z,86.40
2022-11-07T02:46:20.996Z,86.45
2022-11-07T02:47:20.970Z,86.49
2022-11-07T02:48:20.977Z,86.37
2022-11-07T02:49:20.940Z,86.37
2022-11-07T02:50:20.940Z,86.41
2022-11-07T02:51:20.959Z,86.37
2022-11-07T02:52:20.929Z,86.38
2022-11-07T02:53:20.910Z,86.39
2022-11-07T02:54:20.880Z,86.40
2022-11-07T02:55:20.872Z,86.43
2022-11-07T02:56:20.867Z,86.59
2022-11-07T02:57:20.872Z,86.69
2022-11-07T02:58:20.866Z,86.67
2022-11-07T02:59:26.639Z,86.71
2022-11-07T03:00:21.815Z,86.72
2022-11-07T03:01:20.890Z,86.71
2022-11-07T03:02:20.923Z,86.91
2022-11-07T03:03:20.793Z,86.97
2022-11-07T03:04:20.783Z,87.15
2022-11-07T03:05:20.764Z,87.28
2022-11-07T03:06:20.752Z,87.39
2022-11-07T03:07:20.765Z,87.54
2022-11-07T03:08:20.729Z,87.62
2022-11-07T03:09:20.700Z,87.79
2022-11-07T03:10:20.706Z,87.86
2022-11-07T03:11:20.697Z,87.86
2022-11-07T03:12:20.705Z,87.95
2022-11-07T03:13:20.671Z,88.07
2022-11-07T03:14:20.733Z,88.06
2022-11-07T03:15:20.642Z,88.07
2022-11-07T03:16:20.635Z,88.09
2022-11-07T03:17:20.642Z,88.12
2022-11-07T03:18:20.617Z,88.17
2022-11-07T03:19:20.603Z,88.24
2022-11-07T03:20:20.597Z,88.26
2022-11-07T03:21:20.583Z,88.27
2022-11-07T03:22:20.594Z,88.30
2022-11-07T03:23:20.587Z,88.31
2022-11-07T03:24:20.570Z,88.32
2022-11-07T03:25:20.541Z,88.36
2022-11-07T03:26:20.525Z,88.41
2022-11-07T03:27:20.523Z,88.41
2022-11-07T03:28:20.503Z,88.40
2022-11-07T03:29:20.501Z,88.41
2022-11-07T03:30:20.484Z,88.41
2022-11-07T03:31:20.476Z,88.45
2022-11-07T03:32:20.460Z,88.46
2022-11-07T03:33:20.450Z,88.48
2022-11-07T03:34:20.472Z,88.47
2022-11-07T03:35:20.435Z,88.48
2022-11-07T03:36:20.408Z,88.51
2022-11-07T03:37:20.396Z,88.48
2022-11-07T03:38:20.397Z,88.49
2022-11-07T03:39:25.502Z,88.47
2022-11-07T03:40:21.380Z,88.46
2022-11-07T03:41:20.365Z,88.44
2022-11-07T03:42:20.350Z,88.48
2022-11-07T03:43:20.333Z,88.53
2022-11-07T03:44:20.331Z,88.53
2022-11-07T03:45:20.328Z,88.49
2022-11-07T03:46:20.307Z,88.47
2022-11-07T03:47:20.284Z,88.45
2022-11-07T03:48:20.276Z,88.47
2022-11-07T03:49:20.260Z,88.45
2022-11-07T03:50:20.277Z,88.47
2022-11-07T03:51:20.247Z,88.47
2022-11-07T03:52:20.249Z,88.45
2022-11-07T03:53:25.180Z,88.47
2022-11-07T03:54:21.247Z,88.49
2022-11-07T03:55:20.205Z,88.51
2022-11-07T03:56:20.180Z,88.53
2022-11-07T03:57:20.177Z,88.53
2022-11-07T03:58:20.168Z,88.51
2022-11-07T03:59:20.149Z,88.53
2022-11-07T04:00:20.164Z,88.57
2022-11-07T04:01:20.153Z,88.64
2022-11-07T04:02:20.313Z,88.67
2022-11-07T04:03:20.117Z,88.70
2022-11-07T04:04:20.104Z,88.66
2022-11-07T04:05:20.096Z,88.61
2022-11-07T04:06:20.066Z,88.60
2022-11-07T04:07:20.067Z,88.54
2022-11-07T04:08:20.050Z,88.46
2022-11-07T04:09:20.030Z,88.47
2022-11-07T04:10:20.029Z,88.46
2022-11-07T04:11:20.038Z,88.53
2022-11-07T04:12:20.018Z,88.54
2022-11-07T04:13:20.006Z,88.64
2022-11-07T04:14:20.011Z,88.64
2022-11-07T04:15:19.967Z,88.69
2022-11-07T04:16:19.997Z,88.65
2022-11-07T04:17:19.940Z,88.65
2022-11-07T04:18:19.927Z,88.61
2022-11-07T04:19:19.921Z,88.60
2022-11-07T04:20:19.922Z,88.59
2022-11-07T04:21:19.913Z,88.68
2022-11-07T04:22:19.896Z,88.73
2022-11-07T04:23:19.906Z,88.67
2022-11-07T04:24:19.868Z,88.70
2022-11-07T04:25:19.857Z,88.72
2022-11-07T04:26:19.881Z,88.67
2022-11-07T04:27:19.831Z,88.69
2022-11-07T04:28:19.840Z,88.68
2022-11-07T04:29:19.820Z,88.68
2022-11-07T04:30:19.917Z,88.70
2022-11-07T04:31:19.797Z,88.72
2022-11-07T04:32:19.782Z,88.70
2022-11-07T04:33:19.762Z,88.67
2022-11-07T04:34:19.760Z,88.64
2022-11-07T04:35:19.736Z,88.58
2022-11-07T04:36:19.757Z,88.57
2022-11-07T04:37:19.729Z,88.58
2022-11-07T04:38:19.722Z,88.52
2022-11-07T04:39:19.725Z,88.46
2022-11-07T04:40:19.712Z,88.48
2022-11-07T04:41:19.685Z,88.53
2022-11-07T04:42:19.681Z,88.51
2022-11-07T04:43:19.661Z,88.52
2022-11-07T04:44:19.641Z,88.56
2022-11-07T04:45:19.626Z,88.61
2022-11-07T04:46:19.626Z,88.67
2022-11-07T04:47:19.606Z,88.76
2022-11-07T04:48:19.604Z,88.76
2022-11-07T04:49:19.590Z,88.93
2022-11-07T04:50:19.578Z,88.96
2022-11-07T04:51:19.560Z,88.93
2022-11-07T04:52:19.567Z,88.93
2022-11-07T04:53:19.558Z,89.01
2022-11-07T04:54:19.522Z,89.08
2022-11-07T04:55:19.538Z,89.06
2022-11-07T04:56:19.520Z,89.06
2022-11-07T04:57:19.493Z,89.15
2022-11-07T04:58:19.499Z,89.18
2022-11-07T04:59:19.460Z,89.20
2022-11-07T05:00:19.452Z,89.16
2022-11-07T05:01:19.452Z,89.11
2022-11-07T05:02:19.618Z,89.10
2022-11-07T05:03:19.701Z,89.11
2022-11-07T05:04:19.412Z,89.17
2022-11-07T05:05:19.403Z,89.19
2022-11-07T05:06:19.397Z,89.21
2022-11-07T05:07:19.383Z,89.22
2022-11-07T05:08:19.402Z,89.19
2022-11-07T05:09:19.362Z,89.22
2022-11-07T05:10:19.342Z,89.23
2022-11-07T05:11:19.332Z,89.24
2022-11-07T05:12:19.343Z,89.24
2022-11-07T05:13:19.323Z,89.22
2022-11-07T05:14:19.300Z,89.20
2022-11-07T05:15:19.291Z,89.20
2022-11-07T05:16:19.272Z,89.19
2022-11-07T05:17:19.261Z,89.15
2022-11-07T05:18:19.273Z,89.16
2022-11-07T05:19:19.238Z,89.12
2022-11-07T05:20:19.226Z,89.17
2022-11-07T05:21:19.215Z,89.25
2022-11-07T05:22:19.231Z,89.31
2022-11-07T05:23:19.969Z,89.38
2022-11-07T05:24:19.181Z,89.37
2022-11-07T05:25:19.191Z,89.38
2022-11-07T05:26:19.160Z,89.34
2022-11-07T05:27:19.250Z,89.25
2022-11-07T05:28:25.729Z,89.22
2022-11-07T05:29:20.126Z,89.15
2022-11-07T05:30:19.112Z,89.17
2022-11-07T05:31:19.108Z,89.17
2022-11-07T05:32:19.112Z,89.14
2022-11-07T05:33:19.084Z,89.14
2022-11-07T05:34:19.085Z,89.18
2022-11-07T05:35:19.071Z,89.21
2022-11-07T05:36:19.043Z,89.16
2022-11-07T05:37:19.033Z,89.03
2022-11-07T05:38:19.047Z,88.98
2022-11-07T05:39:19.018Z,88.94
2022-11-07T05:40:19.003Z,88.95
2022-11-07T05:41:19.015Z,88.86
2022-11-07T05:42:18.977Z,88.78
2022-11-07T05:43:18.976Z,88.79
2022-11-07T05:44:18.972Z,88.73
2022-11-07T05:45:18.958Z,88.59
2022-11-07T05:46:18.948Z,88.46
2022-11-07T05:47:18.925Z,88.41
2022-11-07T05:48:18.921Z,88.37
2022-11-07T05:49:18.917Z,88.38
2022-11-07T05:50:18.895Z,88.35
2022-11-07T05:51:18.896Z,88.31
2022-11-07T05:52:18.872Z,88.30
2022-11-07T05:53:19.251Z,88.42
2022-11-07T05:54:18.861Z,88.32
2022-11-07T05:55:18.852Z,88.25
2022-11-07T05:56:18.837Z,88.26
2022-11-07T05:57:18.804Z,88.22
2022-11-07T05:58:18.808Z,88.17
2022-11-07T05:59:18.784Z,88.07
2022-11-07T06:00:18.786Z,87.75
2022-11-07T06:01:18.788Z,87.28
2022-11-07T06:02:18.849Z,87.17
2022-11-07T06:03:19.247Z,87.04
2022-11-07T06:04:18.757Z,86.95
2022-11-07T06:05:23.128Z,86.93
2022-11-07T06:06:19.736Z,87.02
2022-11-07T06:07:18.697Z,87.04
2022-11-07T06:08:18.686Z,86.82
2022-11-07T06:09:18.700Z,86.68
2022-11-07T06:10:18.686Z,86.52
2022-11-07T06:11:18.666Z,86.27
2022-11-07T06:12:18.639Z,86.15
2022-11-07T06:13:19.013Z,86.13
2022-11-07T06:14:18.642Z,86.02
2022-11-07T06:15:18.616Z,85.97
2022-11-07T06:16:18.601Z,85.98
2022-11-07T06:17:18.629Z,86.01
2022-11-07T06:18:18.572Z,85.97
2022-11-07T06:19:18.565Z,85.94
2022-11-07T06:20:18.574Z,85.84
2022-11-07T06:21:18.597Z,85.75
2022-11-07T06:22:18.565Z,85.64
2022-11-07T06:23:18.758Z,85.41
2022-11-07T06:24:18.508Z,85.31
2022-11-07T06:25:18.497Z,85.31
2022-11-07T06:26:18.486Z,84.90
2022-11-07T06:27:18.491Z,84.72
2022-11-07T06:28:18.488Z,84.55
2022-11-07T06:29:18.447Z,84.51
2022-11-07T06:30:18.470Z,84.27
2022-11-07T06:31:18.439Z,84.06
2022-11-07T06:32:18.437Z,84.01
2022-11-07T06:33:19.060Z,83.92
2022-11-07T06:34:18.425Z,83.78
2022-11-07T06:35:18.375Z,83.41
2022-11-07T06:36:18.388Z,83.11
2022-11-07T06:37:18.358Z,83.03
2022-11-07T06:38:18.357Z,83.04
2022-11-07T06:39:18.351Z,83.11
2022-11-07T06:40:18.348Z,83.27
2022-11-07T06:41:18.320Z,83.17
2022-11-07T06:42:18.299Z,83.08
2022-11-07T06:43:18.882Z,82.97
2022-11-07T06:44:18.297Z,82.12
2022-11-07T06:45:18.267Z,81.73
2022-11-07T06:46:18.270Z,81.95
2022-11-07T06:47:18.243Z,82.14
2022-11-07T06:48:18.231Z,81.90
2022-11-07T06:49:18.229Z,81.81
2022-11-07T06:50:18.233Z,81.74
2022-11-07T06:51:18.188Z,81.32
2022-11-07T06:52:18.195Z,81.24
2022-11-07T06:53:18.627Z,81.30
2022-11-07T06:54:18.165Z,81.65
2022-11-07T06:55:18.147Z,81.91
2022-11-07T06:56:18.161Z,81.87
2022-11-07T06:57:18.121Z,81.76
2022-11-07T06:58:18.116Z,81.52
2022-11-07T06:59:18.099Z,81.54
2022-11-07T07:00:18.102Z,81.56
2022-11-07T07:01:18.142Z,81.60
2022-11-07T07:02:30.820Z,81.67
2022-11-07T07:03:19.389Z,81.56
2022-11-07T07:04:18.060Z,81.52
2022-11-07T07:05:21.118Z,81.58
2022-11-07T07:06:18.050Z,81.85
2022-11-07T07:07:18.028Z,81.74
2022-11-07T07:08:18.000Z,81.69
2022-11-07T07:09:18.027Z,81.81
2022-11-07T07:10:17.984Z,81.83
2022-11-07T07:11:18.000Z,81.85
2022-11-07T07:12:17.959Z,82.12
2022-11-07T07:13:18.358Z,82.28
2022-11-07T07:14:17.937Z,82.33
2022-11-07T07:15:17.940Z,82.26
2022-11-07T07:16:17.939Z,82.45
2022-11-07T07:17:17.909Z,82.81
2022-11-07T07:18:17.884Z,82.89
2022-11-07T07:19:17.886Z,82.79
2022-11-07T07:20:17.869Z,82.70
2022-11-07T07:21:17.861Z,82.62
2022-11-07T07:22:17.881Z,82.58
2022-11-07T07:23:18.089Z,82.67
2022-11-07T07:24:17.820Z,82.70
2022-11-07T07:25:17.803Z,82.78
2022-11-07T07:26:17.814Z,82.85
2022-11-07T07:27:17.788Z,82.97
2022-11-07T07:28:17.780Z,83.17
2022-11-07T07:29:17.786Z,83.19
2022-11-07T07:30:17.742Z,83.32
2022-11-07T07:31:17.733Z,83.37
2022-11-07T07:32:17.764Z,83.36
2022-11-07T07:33:18.128Z,83.61
2022-11-07T07:34:17.715Z,83.64
2022-11-07T07:35:17.725Z,83.66
2022-11-07T07:36:20.732Z,83.76
2022-11-07T07:37:17.682Z,83.81
2022-11-07T07:38:17.727Z,83.90
2022-11-07T07:39:17.650Z,83.98
2022-11-07T07:40:17.632Z,83.98
2022-11-07T07:41:17.630Z,83.98
2022-11-07T07:42:17.626Z,84.01
2022-11-07T07:43:17.970Z,84.11
2022-11-07T07:44:17.608Z,84.09
2022-11-07T07:45:17.584Z,84.00
2022-11-07T07:46:17.571Z,83.90
2022-11-07T07:47:17.572Z,83.80
2022-11-07T07:48:17.544Z,83.63
2022-11-07T07:49:17.584Z,83.66
2022-11-07T07:50:17.527Z,83.70
2022-11-07T07:51:17.523Z,83.76
2022-11-07T07:52:17.495Z,83.86
2022-11-07T07:53:17.774Z,83.90
2022-11-07T07:54:17.481Z,83.94
2022-11-07T07:55:17.519Z,84.02
2022-11-07T07:56:17.461Z,84.06
2022-11-07T07:57:17.439Z,84.02
2022-11-07T07:58:17.470Z,83.96
2022-11-07T07:59:17.412Z,83.88
2022-11-07T08:00:17.547Z,83.81
2022-11-07T08:01:17.464Z,83.79
2022-11-07T08:02:17.463Z,83.88
2022-11-07T08:03:17.755Z,83.91
2022-11-07T08:04:17.363Z,83.92
2022-11-07T08:05:17.354Z,83.68
2022-11-07T08:06:17.357Z,83.63
2022-11-07T08:07:17.372Z,83.53
2022-11-07T08:08:17.337Z,83.28
2022-11-07T08:09:17.308Z,83.17
2022-11-07T08:11:18.300Z,83.10
2022-11-07T08:12:17.311Z,83.06
2022-11-07T08:13:17.652Z,83.05
2022-11-07T08:14:17.247Z,83.10
2022-11-07T08:15:17.260Z,83.16
2022-11-07T08:16:17.253Z,83.31
2022-11-07T08:17:17.229Z,83.30
2022-11-07T08:18:17.206Z,83.18
2022-11-07T08:19:17.198Z,83.10
2022-11-07T08:20:17.200Z,82.94
2022-11-07T08:21:17.213Z,82.78
2022-11-07T08:22:17.159Z,82.65
2022-11-07T08:23:17.210Z,82.40
2022-11-07T08:24:17.165Z,82.13
2022-11-07T08:25:17.159Z,82.25
2022-11-07T08:26:17.122Z,82.28
2022-11-07T08:27:17.124Z,82.22
2022-11-07T08:28:17.114Z,82.17
2022-11-07T08:29:17.094Z,81.79
2022-11-07T08:30:18.250Z,81.56
2022-11-07T08:31:17.083Z,81.46
2022-11-07T08:32:17.055Z,81.34
2022-11-07T08:33:17.280Z,81.17
2022-11-07T08:34:17.026Z,80.73
2022-11-07T08:35:17.012Z,80.66
2022-11-07T08:36:17.008Z,80.79
2022-11-07T08:37:16.990Z,80.88
2022-11-07T08:38:17.002Z,80.69
2022-11-07T08:39:16.972Z,80.13
2022-11-07T08:40:16.958Z,80.19
2022-11-07T08:41:21.795Z,80.07
2022-11-07T08:42:18.000Z,79.44
2022-11-07T08:43:17.234Z,79.45
2022-11-07T08:44:16.910Z,79.90
2022-11-07T08:45:16.893Z,79.79
2022-11-07T08:46:16.880Z,80.04
2022-11-07T08:47:16.905Z,79.90
2022-11-07T08:48:16.866Z,79.45
2022-11-07T08:49:16.872Z,79.53
2022-11-07T08:50:16.848Z,79.73
2022-11-07T08:51:16.840Z,79.82
2022-11-07T08:52:16.817Z,79.22
2022-11-07T08:53:17.111Z,78.77
2022-11-07T08:54:16.798Z,79.36
2022-11-07T08:55:16.797Z,79.07
2022-11-07T08:56:16.922Z,78.60
2022-11-07T08:57:16.790Z,78.82
2022-11-07T08:58:16.758Z,78.93
2022-11-07T08:59:16.732Z,78.94
2022-11-07T09:00:16.766Z,79.17
2022-11-07T09:01:16.937Z,79.28
2022-11-07T09:03:50.362Z,78.74
2022-11-07T09:04:17.743Z,78.25
2022-11-07T09:05:16.681Z,78.05
2022-11-07T09:06:16.659Z,77.67
2022-11-07T09:07:16.640Z,77.99
2022-11-07T09:08:16.642Z,78.24
2022-11-07T09:09:16.936Z,78.36
2022-11-07T09:10:16.630Z,78.20
2022-11-07T09:11:16.604Z,78.36
2022-11-07T09:12:16.596Z,77.97
2022-11-07T09:13:16.949Z,78.08
2022-11-07T09:14:16.566Z,78.09
2022-11-07T09:15:16.585Z,78.25
2022-11-07T09:16:16.545Z,77.79
2022-11-07T09:17:16.545Z,77.40
2022-11-07T09:18:16.512Z,77.34
2022-11-07T09:19:16.537Z,77.82
2022-11-07T09:20:16.488Z,78.28
2022-11-07T09:21:21.752Z,78.41
2022-11-07T09:22:17.469Z,78.41
2022-11-07T09:23:16.842Z,78.67
2022-11-07T09:24:16.469Z,78.75
2022-11-07T09:25:16.447Z,78.88
2022-11-07T09:26:16.432Z,78.90
2022-11-07T09:27:16.417Z,78.82
2022-11-07T09:28:16.409Z,78.82
2022-11-07T09:29:16.416Z,79.26
2022-11-07T09:30:16.375Z,79.17
2022-11-07T09:31:16.375Z,78.92
2022-11-07T09:32:42.900Z,78.73
2022-11-07T09:33:17.619Z,78.67
2022-11-07T09:34:16.346Z,78.63
2022-11-07T09:35:16.323Z,78.78
2022-11-07T09:36:16.314Z,78.60
2022-11-07T09:37:16.307Z,78.27
2022-11-07T09:38:16.282Z,78.27
2022-11-07T09:39:16.312Z,78.58
2022-11-07T09:40:16.257Z,78.29
2022-11-07T09:41:16.267Z,78.17
2022-11-07T09:42:16.237Z,78.08
2022-11-07T09:43:16.747Z,78.45
2022-11-07T09:44:16.251Z,78.57
2022-11-07T09:45:16.227Z,77.93
2022-11-07T09:46:16.205Z,77.76
2022-11-07T09:47:16.187Z,77.62
2022-11-07T09:48:16.180Z,77.51
2022-11-07T09:49:16.189Z,78.04
2022-11-07T09:50:16.160Z,77.88
2022-11-07T09:51:16.140Z,77.84
2022-11-07T09:52:16.143Z,77.79
2022-11-07T09:53:16.346Z,77.93
2022-11-07T09:54:16.110Z,78.13
2022-11-07T09:55:16.099Z,77.37
2022-11-07T09:56:16.082Z,77.33
2022-11-07T09:57:16.064Z,77.04
2022-11-07T09:58:16.060Z,77.44
2022-11-07T09:59:16.080Z,77.13
2022-11-07T10:00:16.091Z,77.47
2022-11-07T10:01:16.102Z,76.95
2022-11-07T10:02:16.069Z,76.85
2022-11-07T10:03:16.387Z,77.01
2022-11-07T10:04:25.247Z,77.18
2022-11-07T10:05:17.003Z,77.22
2022-11-07T10:06:16.823Z,77.21
2022-11-07T10:07:15.959Z,76.85
2022-11-07T10:08:15.936Z,77.28
2022-11-07T10:09:15.922Z,77.11
2022-11-07T10:10:15.943Z,77.05
2022-11-07T10:11:15.927Z,76.99
2022-11-07T10:12:15.938Z,77.03
2022-11-07T10:13:16.194Z,77.12
2022-11-07T10:14:15.947Z,76.96
2022-11-07T10:15:15.878Z,76.93
2022-11-07T10:16:15.875Z,76.55
2022-11-07T10:17:15.839Z,76.57
2022-11-07T10:18:15.823Z,76.53
2022-11-07T10:19:15.814Z,76.71
2022-11-07T10:20:19.262Z,76.47
2022-11-07T10:21:37.177Z,76.57
2022-11-07T10:22:16.783Z,76.64
2022-11-07T10:23:16.092Z,76.69
2022-11-07T10:24:15.748Z,76.81
2022-11-07T10:25:15.763Z,76.39
2022-11-07T10:26:15.730Z,76.23
2022-11-07T10:27:15.750Z,76.33
2022-11-07T10:28:15.725Z,75.68
2022-11-07T10:29:15.740Z,76.05
2022-11-07T10:30:15.732Z,76.08
2022-11-07T10:31:15.677Z,76.25
2022-11-07T10:32:15.692Z,76.22
2022-11-07T10:33:15.951Z,76.47
2022-11-07T10:34:15.632Z,76.00
2022-11-07T10:35:15.621Z,75.26
2022-11-07T10:36:15.618Z,75.04
2022-11-07T10:37:15.620Z,74.65
2022-11-07T10:38:15.626Z,74.76
2022-11-07T10:39:15.582Z,74.51
2022-11-07T10:40:15.576Z,74.40
2022-11-07T10:41:15.576Z,74.31
2022-11-07T10:42:15.545Z,74.77
2022-11-07T10:43:15.833Z,74.14
2022-11-07T10:44:15.582Z,73.89
2022-11-07T10:45:15.552Z,73.69
2022-11-07T10:46:15.522Z,73.96
2022-11-07T10:47:15.490Z,73.40
2022-11-07T10:48:15.886Z,73.65
2022-11-07T10:49:15.462Z,73.70
2022-11-07T10:50:15.471Z,73.75
2022-11-07T10:51:15.436Z,73.38
2022-11-07T10:52:15.456Z,73.00
2022-11-07T10:53:15.416Z,72.71
2022-11-07T10:54:20.731Z,72.79
2022-11-07T10:55:16.397Z,72.50
2022-11-07T10:56:15.380Z,72.74
2022-11-07T10:57:15.369Z,72.90
2022-11-07T10:58:15.724Z,73.14
2022-11-07T10:59:15.347Z,73.06
2022-11-07T11:00:15.432Z,73.36
2022-11-07T11:01:15.422Z,73.07
2022-11-07T11:02:15.357Z,72.86
2022-11-07T11:03:15.308Z,72.75
2022-11-07T11:04:15.314Z,72.95
2022-11-07T11:05:15.278Z,73.34
2022-11-07T11:06:15.295Z,73.30
2022-11-07T11:07:15.251Z,73.10
2022-11-07T11:08:15.398Z,72.24
2022-11-07T11:09:15.249Z,71.88
2022-11-07T11:10:15.225Z,71.76
2022-11-07T11:11:15.221Z,71.49
2022-11-07T11:12:15.199Z,71.77
2022-11-07T11:13:15.194Z,72.21
2022-11-07T11:14:15.214Z,72.15
2022-11-07T11:15:15.157Z,71.84
2022-11-07T11:16:15.172Z,71.96
2022-11-07T11:17:15.198Z,71.72
2022-11-07T11:18:15.512Z,71.34
2022-11-07T11:19:15.153Z,71.25
2022-11-07T11:20:15.120Z,71.04
2022-11-07T11:21:15.109Z,71.11
2022-11-07T11:22:15.090Z,71.17
2022-11-07T11:23:15.460Z,71.18
2022-11-07T11:24:15.081Z,71.22
2022-11-07T11:25:15.089Z,71.19
2022-11-07T11:26:15.039Z,71.46
2022-11-07T11:27:15.058Z,71.35
2022-11-07T11:28:15.228Z,71.80
2022-11-07T11:29:15.013Z,71.39
2022-11-07T11:30:15.046Z,71.51
2022-11-07T11:31:14.992Z,71.39
2022-11-07T11:32:14.971Z,71.82
2022-11-07T11:33:15.422Z,72.36
2022-11-07T11:34:14.962Z,72.35
2022-11-07T11:35:14.968Z,72.11
2022-11-07T11:36:14.923Z,72.13
2022-11-07T11:37:14.912Z,72.16
2022-11-07T11:38:14.907Z,71.86
2022-11-07T11:39:14.894Z,72.06
2022-11-07T11:40:15.006Z,72.30
2022-11-07T11:41:14.884Z,71.98
2022-11-07T11:42:14.916Z,71.63
2022-11-07T11:43:15.156Z,71.82
2022-11-07T11:44:14.865Z,72.20
2022-11-07T11:45:14.834Z,72.07
2022-11-07T11:46:14.836Z,71.86
2022-11-07T11:47:14.798Z,72.11
2022-11-07T11:48:14.794Z,72.27
2022-11-07T11:49:14.788Z,72.42
2022-11-07T11:50:14.875Z,72.18
2022-11-07T11:51:14.768Z,72.19
2022-11-07T11:52:14.745Z,72.16
2022-11-07T11:53:14.983Z,71.86
2022-11-07T11:54:14.724Z,71.58
2022-11-07T11:55:14.705Z,71.53
2022-11-07T11:56:14.744Z,71.67
2022-11-07T11:57:14.725Z,72.34
2022-11-07T11:58:14.741Z,71.83
2022-11-07T11:59:14.656Z,71.54
2022-11-07T12:00:14.720Z,71.51
2022-11-07T12:01:14.723Z,71.46
2022-11-07T12:02:14.758Z,71.30
2022-11-07T12:03:14.864Z,70.98
2022-11-07T12:04:14.610Z,71.59
2022-11-07T12:05:14.605Z,71.34
2022-11-07T12:06:14.615Z,71.11
2022-11-07T12:07:14.586Z,71.31
2022-11-07T12:08:14.608Z,70.91
2022-11-07T12:09:17.132Z,71.16
2022-11-07T12:10:14.573Z,71.60
2022-11-07T12:11:14.522Z,71.87
2022-11-07T12:12:14.521Z,71.49
2022-11-07T12:13:15.057Z,71.81
2022-11-07T12:14:14.503Z,71.71
2022-11-07T12:15:14.512Z,71.81
2022-11-07T12:16:14.486Z,71.90
2022-11-07T12:17:14.452Z,71.56
2022-11-07T12:18:14.521Z,71.00
2022-11-07T12:19:14.453Z,71.44
2022-11-07T12:20:14.430Z,71.35
2022-11-07T12:21:14.410Z,71.93
2022-11-07T12:22:14.399Z,71.12
2022-11-07T12:23:14.689Z,71.17
2022-11-07T12:24:14.400Z,71.39
2022-11-07T12:25:14.366Z,71.49
2022-11-07T12:26:14.356Z,71.36
2022-11-07T12:27:14.350Z,71.38
2022-11-07T12:28:14.427Z,71.14
2022-11-07T12:29:14.358Z,71.31
2022-11-07T12:30:14.327Z,70.88
2022-11-07T12:31:14.305Z,71.39
2022-11-07T12:32:14.318Z,71.46
2022-11-07T12:33:14.671Z,71.72
2022-11-07T12:34:14.297Z,71.38
2022-11-07T12:35:14.250Z,70.76
2022-11-07T12:36:14.244Z,70.15
2022-11-07T12:37:14.245Z,70.31
2022-11-07T12:38:14.228Z,70.34
2022-11-07T12:39:14.203Z,70.72
2022-11-07T12:40:14.219Z,70.37
2022-11-07T12:41:14.197Z,70.41
2022-11-07T12:42:14.193Z,70.03
2022-11-07T12:43:14.418Z,70.39
2022-11-07T12:44:14.188Z,70.50
2022-11-07T12:45:14.171Z,70.83
2022-11-07T12:46:14.127Z,71.02
2022-11-07T12:47:14.124Z,70.95
2022-11-07T12:48:14.110Z,71.19
2022-11-07T12:49:14.123Z,71.75
2022-11-07T12:50:14.104Z,71.51
2022-11-07T12:51:14.076Z,71.24
2022-11-07T12:52:14.080Z,71.88
2022-11-07T12:53:14.341Z,71.61
2022-11-07T12:54:16.665Z,71.90